Details From KSMF - Sacramento Intl
To KCXP - Carson
Flight Number -
Tags decoded
Created
Modified
Stats Distance 93 nm / 173 km
Max Altitude 0 ft / 0 m
Waypoints 4
Social Downloads 1
Likes 0
Share VATSIM

Download

Looking for another format? Having issues loading an existing format? Contact us
Advertisement - Login to hide

Notes

Requested: KSMF AUDIO SWR KCXP

Route

KSMF AUDIO SWR KCXP

ID Type Via Altitude Latitude Longitude Leg Dist Tot Dist Heading (true) Name
O KSMF APT - 0 ft / 0 m 38.69543˚ -121.59077˚ - 0 nm - Sacramento Intl
AUDIO FIX - 0 ft / 0 m 38.94593˚ -121.04806˚ 29 nm 29 nm 59° / 60° -
SWR VOR - 0 ft / 0 m 39.18033˚ -120.26961˚ 38 nm 68 nm 69° / 69° SQUAW VALLEY VOR-DME
O KCXP APT - 0 ft / 0 m 39.19223˚ -119.73445˚ 24 nm 93 nm 88° / 89° Carson

Altitude Profile

Advertisement - Login to hide

KSMF

Details ICAO KSMF (SMF)
Name Sacramento Intl
Region United States
Timezone America/Los_Angeles (UTC-8.0)
Stats Elevation 27 ft / 8 m (AMSL)
Location 38.695431° -121.590769°
Runways 2
Magnetic Variation 13.573° E

METAR

KSMF 141253Z 00000KT 10SM CLR 01/01 A3006 RMK AO2 SLP179 T00110006

Decode

TAF

KSMF 141125Z 1412/1512 VRB03KT 5SM BR SCT250 TEMPO 1412/1416 3/4SM BCFG SCT001 FM142000 VRB04KT P6SM SKC

Decode

Departure Runways

ID Width Length Bearing (true) Bearing (mag) Surface Threshold Offset Overrun Length
16L 151 ft / 46 m 8,618 ft / 2,627 m 180.73° 167.16° Concrete 499 ft / 152 m 256 ft / 78 m
16R 151 ft / 46 m 8,614 ft / 2,626 m 180.75° 167.18° Asphalt 499 ft / 152 m 171 ft / 52 m
34L 151 ft / 46 m 8,614 ft / 2,626 m 0.75° 347.18° Asphalt 499 ft / 152 m 157 ft / 48 m
34R 151 ft / 46 m 8,618 ft / 2,627 m 0.73° 347.16° Concrete 499 ft / 152 m 262 ft / 80 m

KCXP

Details ICAO KCXP
Name Carson
Region United States
Timezone America/Los_Angeles (UTC-8.0)
Stats Elevation 4,697 ft / 1,432 m (AMSL)
Location 39.192232° -119.734450°
Runways 1
Magnetic Variation 13.333° E

METAR

KCXP 141315Z AUTO 00000KT 10SM SCT035 M09/M11 A3041 RMK AO2

Decode

TAF

TAF KCXP 141120Z 1412/1512 VRB03KT P6SM SKC FM142200 08010KT P6SM SCT250 FM150300 VRB03KT P6SM SKC

Decode

Destination Runways

ID Width Length Bearing (true) Bearing (mag) Surface Threshold Offset Overrun Length
09 75 ft / 23 m 5,912 ft / 1,802 m 106.65° 93.32° Asphalt 0 ft / 0 m 0 ft / 0 m
27 75 ft / 23 m 5,912 ft / 1,802 m 286.67° 273.34° Asphalt 0 ft / 0 m 0 ft / 0 m